createdAt,value
2017-04-28T00:00:55.382Z,0
2017-04-28T00:02:17.534Z,0
2017-04-28T00:03:39.799Z,0
2017-04-28T00:05:02.050Z,0
2017-04-28T00:06:24.511Z,0
2017-04-28T00:07:46.349Z,0
2017-04-28T00:09:08.178Z,0
2017-04-28T00:10:29.719Z,0
2017-04-28T00:11:52.024Z,0
2017-04-28T00:13:14.277Z,0
2017-04-28T00:14:36.399Z,0
2017-04-28T00:15:58.594Z,0
2017-04-28T00:17:20.830Z,0
2017-04-28T00:18:43.296Z,0
2017-04-28T00:20:05.450Z,0
2017-04-28T00:21:27.912Z,0
2017-04-28T00:22:50.068Z,0
2017-04-28T00:24:11.829Z,0
2017-04-28T00:25:33.695Z,0
2017-04-28T00:26:55.523Z,0
2017-04-28T00:28:17.542Z,0
2017-04-28T00:29:39.741Z,0
2017-04-28T00:31:01.977Z,0
2017-04-28T00:32:23.859Z,0
2017-04-28T00:33:46.008Z,0
2017-04-28T00:35:08.412Z,0
2017-04-28T00:36:30.231Z,0
2017-04-28T00:37:51.745Z,0
2017-04-28T00:39:13.592Z,0
2017-04-28T00:40:36.314Z,0
2017-04-28T00:41:58.188Z,0
2017-04-28T00:43:20.652Z,0
2017-04-28T00:44:42.550Z,0
2017-04-28T00:46:04.729Z,0
2017-04-28T00:47:26.293Z,0
2017-04-28T00:48:47.849Z,0
2017-04-28T00:50:09.061Z,0
2017-04-28T00:51:30.820Z,0
2017-04-28T00:52:52.970Z,0
2017-04-28T00:54:14.818Z,0
2017-04-28T00:55:36.395Z,0
2017-04-28T00:56:58.620Z,0
2017-04-28T00:58:20.146Z,0
2017-04-28T00:59:42.289Z,0
2017-04-28T01:01:04.459Z,0
2017-04-28T01:02:26.528Z,0
2017-04-28T01:03:47.730Z,0
2017-04-28T01:05:09.239Z,0
2017-04-28T01:06:30.740Z,0
2017-04-28T01:07:53.178Z,0
2017-04-28T01:09:15.333Z,0
2017-04-28T01:10:37.161Z,0
2017-04-28T01:11:59.002Z,0
2017-04-28T01:13:20.514Z,0
2017-04-28T01:14:42.657Z,0
2017-04-28T01:16:04.806Z,0
2017-04-28T01:17:26.620Z,0
2017-04-28T01:18:48.381Z,0
2017-04-28T01:20:10.518Z,0
2017-04-28T01:21:32.078Z,0
2017-04-28T01:22:54.559Z,0
2017-04-28T01:24:17.057Z,0
2017-04-28T01:25:39.321Z,0
2017-04-28T01:27:01.137Z,0
2017-04-28T01:28:23.669Z,0
2017-04-28T01:29:45.793Z,0
2017-04-28T01:31:07.701Z,0
2017-04-28T01:32:29.201Z,0
2017-04-28T01:33:50.719Z,0
2017-04-28T01:35:13.098Z,0
2017-04-28T01:36:35.370Z,0
2017-04-28T01:37:57.849Z,0
2017-04-28T01:39:19.740Z,0
2017-04-28T01:40:42.307Z,0
2017-04-28T01:42:04.130Z,0
2017-04-28T01:43:26.281Z,0
2017-04-28T01:44:48.482Z,0
2017-04-28T01:46:10.279Z,0
2017-04-28T01:47:32.099Z,0
2017-04-28T01:48:53.928Z,0
2017-04-28T01:50:16.448Z,0
2017-04-28T01:51:38.289Z,0
2017-04-28T01:53:00.160Z,0
2017-04-28T01:54:22.051Z,0
2017-04-28T01:55:44.541Z,0
2017-04-28T01:57:06.717Z,0
2017-04-28T01:58:28.549Z,0
2017-04-28T01:59:50.379Z,0
2017-04-28T02:01:12.251Z,0
2017-04-28T02:02:34.839Z,0
2017-04-28T02:03:56.478Z,0
2017-04-28T02:05:18.109Z,0
2017-04-28T02:06:40.567Z,0
2017-04-28T02:08:02.763Z,0
2017-04-28T02:09:24.267Z,0
2017-04-28T02:10:46.203Z,0
2017-04-28T02:12:08.366Z,0
2017-04-28T02:13:30.129Z,0
2017-04-28T02:14:51.341Z,0
2017-04-28T02:16:13.541Z,0
2017-04-28T02:17:35.680Z,0
2017-04-28T02:18:58.353Z,0
2017-04-28T02:20:20.189Z,0
2017-04-28T02:21:42.117Z,0
2017-04-28T02:23:03.624Z,0
2017-04-28T02:24:25.809Z,0
2017-04-28T02:25:47.975Z,0
2017-04-28T02:27:09.798Z,0
2017-04-28T02:28:32.289Z,0
2017-04-28T02:29:54.679Z,0
2017-04-28T02:31:16.200Z,0
2017-04-28T02:32:37.377Z,0
2017-04-28T02:33:59.258Z,0
2017-04-28T02:35:22.068Z,0
2017-04-28T02:36:43.579Z,0
2017-04-28T02:38:05.087Z,0
2017-04-28T02:39:27.239Z,0
2017-04-28T02:40:48.996Z,0
2017-04-28T02:42:10.202Z,0
2017-04-28T02:43:32.128Z,0
2017-04-28T02:44:54.561Z,0
2017-04-28T02:46:17.132Z,0
2017-04-28T02:47:38.302Z,0
2017-04-28T02:49:00.578Z,0
2017-04-28T02:50:22.120Z,0
2017-04-28T02:51:44.290Z,0
2017-04-28T02:53:06.129Z,0
2017-04-28T02:54:28.282Z,0
2017-04-28T02:55:50.108Z,0
2017-04-28T02:57:11.856Z,0
2017-04-28T02:58:33.757Z,0
2017-04-28T02:59:56.349Z,0
2017-04-28T03:01:17.918Z,0
2017-04-28T03:02:39.816Z,0
2017-04-28T03:04:01.649Z,0
2017-04-28T03:05:23.189Z,0
2017-04-28T03:06:44.412Z,0
2017-04-28T03:08:06.191Z,0
2017-04-28T03:09:28.327Z,0
2017-04-28T03:10:50.782Z,0
2017-04-28T03:12:11.950Z,0
2017-04-28T03:13:33.709Z,0
2017-04-28T03:14:55.565Z,0
2017-04-28T03:16:17.109Z,0
2017-04-28T03:17:38.311Z,0
2017-04-28T03:19:01.036Z,0
2017-04-28T03:20:23.230Z,0
2017-04-28T03:21:45.752Z,0
2017-04-28T03:23:07.898Z,0
2017-04-28T03:24:29.970Z,0
2017-04-28T03:25:52.131Z,0
2017-04-28T03:27:13.951Z,0
2017-04-28T03:28:36.125Z,0
2017-04-28T03:29:58.899Z,0
2017-04-28T03:31:21.044Z,0
2017-04-28T03:32:43.197Z,0
2017-04-28T03:34:04.728Z,0
2017-04-28T03:35:27.481Z,0
2017-04-28T03:36:49.734Z,0
2017-04-28T03:38:11.251Z,0
2017-04-28T03:39:32.878Z,0
2017-04-28T03:40:55.097Z,0
2017-04-28T03:42:16.652Z,0
2017-04-28T03:43:38.616Z,0
2017-04-28T03:45:01.078Z,0
2017-04-28T03:46:23.273Z,0
2017-04-28T03:47:45.457Z,0
2017-04-28T03:49:07.914Z,0
2017-04-28T03:50:29.788Z,0
2017-04-28T03:51:52.268Z,0
2017-04-28T03:53:13.801Z,0
2017-04-28T03:54:35.969Z,0
2017-04-28T03:55:58.427Z,0
2017-04-28T03:57:20.211Z,5
2017-04-28T03:58:42.478Z,5
2017-04-28T04:00:03.979Z,5
2017-04-28T04:01:25.828Z,5
2017-04-28T04:02:47.899Z,5
2017-04-28T04:04:09.753Z,5
2017-04-28T04:05:32.269Z,10
2017-04-28T04:06:54.417Z,10
2017-04-28T04:08:16.509Z,10
2017-04-28T04:09:38.488Z,10
2017-04-28T04:11:00.037Z,10
2017-04-28T04:12:22.169Z,15
2017-04-28T04:13:44.558Z,15
2017-04-28T04:15:06.419Z,15
2017-04-28T04:16:28.268Z,15
2017-04-28T04:17:50.402Z,20
2017-04-28T04:19:12.680Z,20
2017-04-28T04:20:34.282Z,25
2017-04-28T04:21:56.119Z,30
2017-04-28T04:23:17.953Z,30
2017-04-28T04:24:40.085Z,30
2017-04-28T04:26:01.617Z,35
2017-04-28T04:27:23.129Z,35
2017-04-28T04:28:44.649Z,35
2017-04-28T04:30:06.149Z,35
2017-04-28T04:31:28.870Z,35
2017-04-28T04:32:50.690Z,40
2017-04-28T04:34:12.818Z,40
2017-04-28T04:35:35.422Z,40
2017-04-28T04:36:57.249Z,40
2017-04-28T04:38:19.707Z,40
2017-04-28T04:39:41.309Z,40
2017-04-28T04:41:03.713Z,40
2017-04-28T04:42:25.929Z,40
2017-04-28T04:43:47.497Z,40
2017-04-28T04:45:09.673Z,45
2017-04-28T04:46:32.170Z,45
2017-04-28T04:47:53.717Z,45
2017-04-28T04:49:14.611Z,50
2017-04-28T04:50:36.769Z,50
2017-04-28T04:51:59.173Z,50
2017-04-28T04:53:21.433Z,55
2017-04-28T04:54:43.261Z,55
2017-04-28T04:56:05.425Z,60
2017-04-28T04:57:27.599Z,65
2017-04-28T04:58:49.425Z,65
2017-04-28T05:00:10.947Z,70
2017-04-28T05:01:33.410Z,70
2017-04-28T05:02:55.220Z,70
2017-04-28T05:04:17.381Z,75
2017-04-28T05:05:39.541Z,75
2017-04-28T05:07:01.684Z,80
2017-04-28T05:08:23.776Z,85
2017-04-28T05:09:45.377Z,85
2017-04-28T05:11:07.521Z,95
2017-04-28T05:12:29.999Z,100
2017-04-28T05:13:51.942Z,105
2017-04-28T05:15:14.072Z,115
2017-04-28T05:16:36.538Z,120
2017-04-28T05:17:58.690Z,115
2017-04-28T05:19:21.079Z,105
2017-04-28T05:20:43.220Z,105
2017-04-28T05:22:05.738Z,115
2017-04-28T05:23:27.588Z,120
2017-04-28T05:24:49.459Z,135
2017-04-28T05:26:10.659Z,130
2017-04-28T05:27:32.819Z,125
2017-04-28T05:28:54.345Z,120
2017-04-28T05:30:15.899Z,125
2017-04-28T05:31:37.740Z,135
2017-04-28T05:32:59.921Z,145
2017-04-28T05:34:21.448Z,150
2017-04-28T05:35:43.871Z,150
2017-04-28T05:37:05.714Z,155
2017-04-28T05:38:27.887Z,185
2017-04-28T05:39:50.059Z,200
2017-04-28T05:41:11.697Z,195
2017-04-28T05:42:34.177Z,175
2017-04-28T05:43:56.120Z,190
2017-04-28T05:45:18.396Z,205
2017-04-28T05:46:40.778Z,200
2017-04-28T05:48:02.366Z,165
2017-04-28T05:49:23.881Z,160
2017-04-28T05:50:45.859Z,160
2017-04-28T05:52:08.334Z,165
2017-04-28T05:53:30.189Z,175
2017-04-28T05:54:52.367Z,175
2017-04-28T05:56:14.222Z,160
2017-04-28T05:57:36.040Z,145
2017-04-28T05:58:58.222Z,145
2017-04-28T06:00:20.389Z,130
2017-04-28T06:01:41.950Z,130
2017-04-28T06:03:04.520Z,120
2017-04-28T06:04:26.672Z,130
2017-04-28T06:05:48.190Z,140
2017-04-28T06:07:10.027Z,135
2017-04-28T06:08:31.570Z,125
2017-04-28T06:09:53.716Z,115
2017-04-28T06:11:15.289Z,115
2017-04-28T06:12:37.541Z,120
2017-04-28T06:13:59.611Z,110
2017-04-28T06:15:21.458Z,100
2017-04-28T06:16:42.657Z,105
2017-04-28T06:18:04.931Z,110
2017-04-28T06:19:27.712Z,135
2017-04-28T06:20:49.907Z,140
2017-04-28T06:22:11.743Z,130
2017-04-28T06:23:33.270Z,130
2017-04-28T06:24:56.072Z,130
2017-04-28T06:26:18.518Z,130
2017-04-28T06:27:40.660Z,125
2017-04-28T06:29:03.125Z,140
2017-04-28T06:30:25.659Z,160
2017-04-28T06:31:47.539Z,170
2017-04-28T06:33:09.100Z,180
2017-04-28T06:34:31.381Z,190
2017-04-28T06:35:54.096Z,195
2017-04-28T06:37:15.926Z,225
2017-04-28T06:38:38.094Z,245
2017-04-28T06:40:00.049Z,260
2017-04-28T06:41:22.518Z,270
2017-04-28T06:42:44.356Z,270
2017-04-28T06:44:06.597Z,265
2017-04-28T06:45:28.748Z,250
2017-04-28T06:46:50.829Z,240
2017-04-28T06:48:13.046Z,225
2017-04-28T06:49:35.204Z,195
2017-04-28T06:50:57.431Z,185
2017-04-28T06:52:19.512Z,175
2017-04-28T06:53:41.679Z,175
2017-04-28T06:55:03.920Z,175
2017-04-28T06:56:25.843Z,185
2017-04-28T06:57:48.352Z,160
2017-04-28T06:59:10.559Z,145
2017-04-28T07:00:32.408Z,135
2017-04-28T07:01:54.359Z,135
2017-04-28T07:03:16.862Z,130
2017-04-28T07:04:38.740Z,110
2017-04-28T07:06:01.181Z,115
2017-04-28T07:07:23.353Z,140
2017-04-28T07:08:45.175Z,140
2017-04-28T07:10:07.669Z,160
2017-04-28T07:11:29.901Z,175
2017-04-28T07:12:52.107Z,190
2017-04-28T07:14:15.271Z,205
2017-04-28T07:15:37.471Z,210
2017-04-28T07:16:59.325Z,190
2017-04-28T07:18:21.477Z,160
2017-04-28T07:19:43.302Z,150
2017-04-28T07:21:05.452Z,165
2017-04-28T07:22:27.932Z,190
2017-04-28T07:23:49.445Z,185
2017-04-28T07:25:11.383Z,165
2017-04-28T07:26:33.842Z,175
2017-04-28T07:27:55.990Z,185
2017-04-28T07:29:18.199Z,185
2017-04-28T07:30:40.611Z,190
2017-04-28T07:32:02.760Z,200
2017-04-28T07:33:24.994Z,215
2017-04-28T07:34:46.540Z,215
2017-04-28T07:36:08.989Z,210
2017-04-28T07:37:31.740Z,200
2017-04-28T07:38:54.232Z,205
2017-04-28T07:40:16.382Z,240
2017-04-28T07:41:38.652Z,265
2017-04-28T07:43:00.900Z,285
2017-04-28T07:44:23.084Z,290
2017-04-28T07:45:45.151Z,295
2017-04-28T07:47:07.697Z,330
2017-04-28T07:48:29.539Z,350
2017-04-28T07:49:51.382Z,365
2017-04-28T07:51:13.253Z,355
2017-04-28T07:52:35.382Z,330
2017-04-28T07:53:57.228Z,290
2017-04-28T07:55:19.590Z,265
2017-04-28T07:56:41.139Z,240
2017-04-28T07:58:02.899Z,225
2017-04-28T07:59:25.083Z,220
2017-04-28T08:00:46.967Z,220
2017-04-28T08:02:09.216Z,225
2017-04-28T08:03:30.986Z,220
2017-04-28T08:04:53.211Z,225
2017-04-28T08:06:15.427Z,230
2017-04-28T08:07:37.272Z,240
2017-04-28T08:08:59.154Z,250
2017-04-28T08:10:21.102Z,265
2017-04-28T08:11:43.317Z,280
2017-04-28T08:13:05.158Z,285
2017-04-28T08:14:27.602Z,275
2017-04-28T08:15:49.760Z,250
2017-04-28T08:17:11.896Z,215
2017-04-28T08:18:33.448Z,195
2017-04-28T08:19:54.950Z,150
2017-04-28T08:21:17.581Z,135
2017-04-28T08:22:39.440Z,130
2017-04-28T08:24:01.306Z,140
2017-04-28T08:25:23.759Z,145
2017-04-28T08:26:46.005Z,155
2017-04-28T08:28:08.149Z,150
2017-04-28T08:29:30.397Z,145
2017-04-28T08:30:52.797Z,150
2017-04-28T08:32:15.299Z,170
2017-04-28T08:33:36.821Z,175
2017-04-28T08:34:58.976Z,175
2017-04-28T08:36:21.389Z,180
2017-04-28T08:37:43.879Z,185
2017-04-28T08:39:05.471Z,180
2017-04-28T08:40:27.350Z,185
2017-04-28T08:41:49.119Z,195
2017-04-28T08:43:11.627Z,195
2017-04-28T08:44:33.831Z,195
2017-04-28T08:45:55.701Z,195
2017-04-28T08:47:18.509Z,200
2017-04-28T08:48:40.049Z,205
2017-04-28T08:50:01.890Z,210
2017-04-28T08:51:24.121Z,225
2017-04-28T08:52:46.619Z,230
2017-04-28T08:54:08.778Z,245
2017-04-28T08:55:30.310Z,275
2017-04-28T08:56:52.462Z,295
2017-04-28T08:58:14.928Z,305
2017-04-28T08:59:36.281Z,305
2017-04-28T09:00:57.857Z,295
2017-04-28T09:02:19.799Z,280
2017-04-28T09:03:42.132Z,285
2017-04-28T09:05:04.054Z,295
2017-04-28T09:06:26.238Z,285
2017-04-28T09:07:48.067Z,290
2017-04-28T09:09:10.232Z,285
2017-04-28T09:10:32.488Z,275
2017-04-28T09:11:54.621Z,275
2017-04-28T09:13:17.149Z,270
2017-04-28T09:14:39.918Z,260
2017-04-28T09:16:01.831Z,255
2017-04-28T09:17:24.345Z,265
2017-04-28T09:18:46.220Z,270
2017-04-28T09:20:08.330Z,255
2017-04-28T09:21:30.687Z,235
2017-04-28T09:22:52.337Z,230
2017-04-28T09:24:13.539Z,230
2017-04-28T09:25:35.678Z,225
2017-04-28T09:26:57.520Z,230
2017-04-28T09:28:19.732Z,250
2017-04-28T09:29:41.654Z,260
2017-04-28T09:31:03.828Z,260
2017-04-28T09:32:25.680Z,260
2017-04-28T09:33:47.867Z,265
2017-04-28T09:35:09.387Z,270
2017-04-28T09:36:32.326Z,285
2017-04-28T09:37:54.891Z,295
2017-04-28T09:39:16.868Z,300
2017-04-28T09:40:37.817Z,305
2017-04-28T09:42:00.300Z,315
2017-04-28T09:43:22.920Z,325
2017-04-28T09:44:44.748Z,330
2017-04-28T09:46:06.577Z,335
2017-04-28T09:47:29.119Z,350
2017-04-28T09:48:50.768Z,370
2017-04-28T09:50:12.628Z,385
2017-04-28T09:51:35.148Z,390
2017-04-28T09:52:57.247Z,390
2017-04-28T09:54:19.409Z,395
2017-04-28T09:55:40.931Z,415
2017-04-28T09:57:03.149Z,435
2017-04-28T09:58:25.536Z,430
2017-04-28T09:59:47.889Z,415
2017-04-28T10:01:10.051Z,385
2017-04-28T10:02:31.907Z,370
2017-04-28T10:03:54.667Z,355
2017-04-28T10:05:16.458Z,355
2017-04-28T10:06:39.020Z,365
2017-04-28T10:08:01.239Z,370
2017-04-28T10:09:23.655Z,370
2017-04-28T10:10:45.547Z,385
2017-04-28T10:12:07.729Z,405
2017-04-28T10:13:29.589Z,410
2017-04-28T10:14:52.399Z,410
2017-04-28T10:16:14.659Z,410
2017-04-28T10:17:36.185Z,435
2017-04-28T10:18:57.790Z,455
2017-04-28T10:20:20.539Z,485
2017-04-28T10:21:43.122Z,485
2017-04-28T10:23:05.397Z,455
2017-04-28T10:24:27.261Z,435
2017-04-28T10:25:50.208Z,500
2017-04-28T10:27:12.045Z,545
2017-04-28T10:28:33.919Z,545
2017-04-28T10:29:56.078Z,535
2017-04-28T10:31:18.894Z,525
2017-04-28T10:32:41.037Z,520
2017-04-28T10:34:03.559Z,525
2017-04-28T10:35:25.806Z,545
2017-04-28T10:36:47.973Z,540
2017-04-28T10:38:09.908Z,530
2017-04-28T10:39:32.079Z,495
2017-04-28T10:40:53.927Z,490
2017-04-28T10:42:15.065Z,500
2017-04-28T10:43:36.917Z,500
2017-04-28T10:44:58.202Z,495
2017-04-28T10:46:20.046Z,470
2017-04-28T10:47:42.460Z,445
2017-04-28T10:49:04.314Z,435
2017-04-28T10:50:26.627Z,435
2017-04-28T10:51:48.277Z,410
2017-04-28T10:53:10.385Z,400
2017-04-28T10:54:32.263Z,435
2017-04-28T10:55:54.449Z,410
2017-04-28T10:57:17.056Z,385
2017-04-28T10:58:38.867Z,385
2017-04-28T11:00:01.352Z,405
2017-04-28T11:01:23.518Z,400
2017-04-28T11:02:44.758Z,410
2017-04-28T11:04:07.357Z,440
2017-04-28T11:05:29.677Z,455
2017-04-28T11:06:51.197Z,450
2017-04-28T11:08:12.807Z,430
2017-04-28T11:09:35.016Z,415
2017-04-28T11:10:56.988Z,395
2017-04-28T11:12:19.230Z,380
2017-04-28T11:13:41.396Z,400
2017-04-28T11:15:03.540Z,400
2017-04-28T11:16:25.726Z,335
2017-04-28T11:17:47.577Z,285
2017-04-28T11:19:08.788Z,285
2017-04-28T11:20:30.947Z,305
2017-04-28T11:21:52.801Z,310
2017-04-28T11:23:14.638Z,360
2017-04-28T11:24:37.297Z,375
2017-04-28T11:26:00.078Z,340
2017-04-28T11:27:21.289Z,350
2017-04-28T11:28:43.492Z,360
2017-04-28T11:30:05.649Z,335
2017-04-28T11:31:27.347Z,370
2017-04-28T11:32:48.550Z,430
2017-04-28T11:34:11.074Z,385
2017-04-28T11:35:32.947Z,340
2017-04-28T11:36:55.516Z,365
2017-04-28T11:38:17.048Z,385
2017-04-28T11:39:39.527Z,415
2017-04-28T11:41:01.698Z,420
2017-04-28T11:42:23.620Z,435
2017-04-28T11:43:45.800Z,470
2017-04-28T11:45:07.678Z,495
2017-04-28T11:46:29.518Z,495
2017-04-28T11:47:51.405Z,495
2017-04-28T11:49:13.574Z,505
2017-04-28T11:50:35.725Z,500
2017-04-28T11:51:57.992Z,510
2017-04-28T11:53:20.747Z,505
2017-04-28T11:54:43.271Z,450
2017-04-28T11:56:05.438Z,435
2017-04-28T11:57:27.949Z,415
2017-04-28T11:58:50.828Z,425
2017-04-28T12:00:12.728Z,480
2017-04-28T12:01:34.258Z,470
2017-04-28T12:02:56.741Z,445
2017-04-28T12:04:19.518Z,450
2017-04-28T12:05:41.697Z,465
2017-04-28T12:07:04.288Z,480
2017-04-28T12:08:26.444Z,455
2017-04-28T12:09:49.029Z,450
2017-04-28T12:11:11.207Z,460
2017-04-28T12:12:33.050Z,410
2017-04-28T12:13:55.641Z,390
2017-04-28T12:15:18.068Z,410
2017-04-28T12:16:40.077Z,420
2017-04-28T12:18:02.301Z,425
2017-04-28T12:19:24.570Z,395
2017-04-28T12:20:47.413Z,325
2017-04-28T12:22:09.579Z,245
2017-04-28T12:23:32.078Z,190
2017-04-28T12:24:54.314Z,140
2017-04-28T12:26:17.099Z,115
2017-04-28T12:27:39.271Z,105
2017-04-28T12:29:01.463Z,100
2017-04-28T12:30:23.639Z,105
2017-04-28T12:31:46.050Z,110
2017-04-28T12:33:08.267Z,150
2017-04-28T12:34:29.163Z,230
2017-04-28T12:35:51.716Z,315
2017-04-28T12:37:14.510Z,370
2017-04-28T12:38:37.108Z,390
2017-04-28T12:39:59.656Z,360
2017-04-28T12:41:21.509Z,300
2017-04-28T12:42:44.455Z,235
2017-04-28T12:44:06.987Z,175
2017-04-28T12:45:29.677Z,140
2017-04-28T12:46:51.578Z,125
2017-04-28T12:48:14.431Z,120
2017-04-28T12:49:37.079Z,140
2017-04-28T12:51:00.074Z,165
2017-04-28T12:52:21.932Z,215
2017-04-28T12:53:44.849Z,270
2017-04-28T12:55:07.051Z,330
2017-04-28T12:56:29.659Z,370
2017-04-28T12:57:51.868Z,385
2017-04-28T12:59:14.638Z,350
2017-04-28T13:00:36.928Z,345
2017-04-28T13:01:59.118Z,350
2017-04-28T13:03:21.859Z,375
2017-04-28T13:04:43.992Z,390
2017-04-28T13:06:06.171Z,400
2017-04-28T13:07:28.669Z,400
2017-04-28T13:08:50.258Z,390
2017-04-28T13:10:12.509Z,395
2017-04-28T13:11:34.368Z,400
2017-04-28T13:12:56.888Z,410
2017-04-28T13:14:19.160Z,415
2017-04-28T13:15:41.649Z,410
2017-04-28T13:17:04.121Z,400
2017-04-28T13:18:25.674Z,385
2017-04-28T13:19:47.638Z,360
2017-04-28T13:21:10.502Z,350
2017-04-28T13:22:32.678Z,340
2017-04-28T13:23:54.513Z,335
2017-04-28T13:25:16.716Z,325
2017-04-28T13:26:38.916Z,305
2017-04-28T13:28:01.163Z,275
2017-04-28T13:29:23.398Z,245
2017-04-28T13:30:44.619Z,220
2017-04-28T13:32:07.169Z,205
2017-04-28T13:33:29.355Z,190
2017-04-28T13:34:51.847Z,175
2017-04-28T13:36:13.679Z,175
2017-04-28T13:37:35.958Z,165
2017-04-28T13:38:57.502Z,160
2017-04-28T13:40:19.721Z,145
2017-04-28T13:41:41.939Z,125
2017-04-28T13:43:04.381Z,120
2017-04-28T13:44:26.233Z,120
2017-04-28T13:45:48.747Z,120
2017-04-28T13:47:10.920Z,115
2017-04-28T13:48:33.278Z,110
2017-04-28T13:49:55.759Z,105
2017-04-28T13:51:18.280Z,95
2017-04-28T13:52:40.778Z,95
2017-04-28T13:54:02.888Z,95
2017-04-28T13:55:25.043Z,90
2017-04-28T13:56:47.019Z,85
2017-04-28T13:58:09.518Z,85
2017-04-28T13:59:32.171Z,90
2017-04-28T14:00:54.398Z,95
2017-04-28T14:02:16.558Z,100
2017-04-28T14:03:38.738Z,110
2017-04-28T14:05:01.504Z,125
2017-04-28T14:06:23.408Z,140
2017-04-28T14:07:45.039Z,150
2017-04-28T14:09:07.644Z,170
2017-04-28T14:10:30.385Z,210
2017-04-28T14:11:52.558Z,260
2017-04-28T14:13:14.743Z,300
2017-04-28T14:14:36.270Z,330
2017-04-28T14:15:58.787Z,345
2017-04-28T14:17:20.960Z,365
2017-04-28T14:18:42.972Z,390
2017-04-28T14:20:04.808Z,380
2017-04-28T14:21:27.546Z,360
2017-04-28T14:22:49.727Z,365
2017-04-28T14:24:12.029Z,380
2017-04-28T14:25:34.520Z,355
2017-04-28T14:26:56.998Z,310
2017-04-28T14:28:19.466Z,275
2017-04-28T14:29:42.050Z,265
2017-04-28T14:31:04.218Z,280
2017-04-28T14:32:26.981Z,300
2017-04-28T14:33:48.841Z,280
2017-04-28T14:35:10.697Z,265
2017-04-28T14:36:32.978Z,255
2017-04-28T14:37:55.566Z,255
2017-04-28T14:39:17.808Z,260
2017-04-28T14:40:39.990Z,250
2017-04-28T14:42:01.929Z,230
2017-04-28T14:43:24.132Z,220
2017-04-28T14:44:46.710Z,215
2017-04-28T14:46:08.699Z,215
2017-04-28T14:47:31.208Z,220
2017-04-28T14:48:53.751Z,205
2017-04-28T14:50:15.721Z,195
2017-04-28T14:51:37.594Z,190
2017-04-28T14:52:59.429Z,175
2017-04-28T14:54:21.617Z,160
2017-04-28T14:55:43.599Z,145
2017-04-28T14:57:05.869Z,130
2017-04-28T14:58:27.760Z,120
2017-04-28T14:59:49.878Z,115
2017-04-28T15:01:11.849Z,120
2017-04-28T15:02:33.392Z,135
2017-04-28T15:03:54.922Z,165
2017-04-28T15:05:17.095Z,195
2017-04-28T15:06:39.009Z,200
2017-04-28T15:08:01.181Z,200
2017-04-28T15:09:23.902Z,200
2017-04-28T15:10:46.749Z,195
2017-04-28T15:12:09.009Z,180
2017-04-28T15:13:31.201Z,160
2017-04-28T15:14:53.416Z,140
2017-04-28T15:16:15.989Z,140
2017-04-28T15:17:37.878Z,145
2017-04-28T15:19:00.063Z,145
2017-04-28T15:20:22.706Z,155
2017-04-28T15:21:45.137Z,155
2017-04-28T15:23:06.986Z,150
2017-04-28T15:24:29.178Z,150
2017-04-28T15:25:51.030Z,165
2017-04-28T15:27:13.664Z,170
2017-04-28T15:28:36.241Z,150
2017-04-28T15:29:58.513Z,140
2017-04-28T15:31:21.022Z,145
2017-04-28T15:32:43.468Z,150
2017-04-28T15:34:05.370Z,155
2017-04-28T15:35:27.536Z,155
2017-04-28T15:36:49.426Z,140
2017-04-28T15:38:12.187Z,120
2017-04-28T15:39:34.370Z,100
2017-04-28T15:40:56.897Z,90
2017-04-28T15:42:19.062Z,85
2017-04-28T15:43:41.910Z,85
2017-04-28T15:45:04.536Z,95
2017-04-28T15:46:27.004Z,110
2017-04-28T15:47:49.282Z,115
2017-04-28T15:49:11.511Z,120
2017-04-28T15:50:33.674Z,120
2017-04-28T15:51:55.528Z,120
2017-04-28T15:53:17.706Z,115
2017-04-28T15:54:39.866Z,110
2017-04-28T15:56:01.816Z,110
2017-04-28T15:57:24.330Z,115
2017-04-28T15:58:47.021Z,120
2017-04-28T16:00:09.196Z,120
2017-04-28T16:01:31.388Z,120
2017-04-28T16:02:53.560Z,120
2017-04-28T16:04:15.399Z,125
2017-04-28T16:05:37.631Z,125
2017-04-28T16:06:59.836Z,135
2017-04-28T16:08:22.344Z,130
2017-04-28T16:09:44.549Z,120
2017-04-28T16:11:07.306Z,110
2017-04-28T16:12:29.807Z,100
2017-04-28T16:13:51.979Z,90
2017-04-28T16:15:14.165Z,90
2017-04-28T16:16:36.958Z,85
2017-04-28T16:17:59.195Z,80
2017-04-28T16:19:21.411Z,75
2017-04-28T16:20:43.586Z,75
2017-04-28T16:22:05.788Z,75
2017-04-28T16:23:28.271Z,70
2017-04-28T16:24:50.428Z,70
2017-04-28T16:26:12.954Z,70
2017-04-28T16:27:35.497Z,70
2017-04-28T16:28:58.004Z,70
2017-04-28T16:30:19.200Z,70
2017-04-28T16:31:41.386Z,75
2017-04-28T16:33:03.939Z,75
2017-04-28T16:34:25.853Z,70
2017-04-28T16:35:47.707Z,65
2017-04-28T16:37:09.407Z,70
2017-04-28T16:38:31.922Z,95
2017-04-28T16:39:54.400Z,110
2017-04-28T16:41:16.938Z,125
2017-04-28T16:42:38.786Z,120
2017-04-28T16:44:01.002Z,115
2017-04-28T16:45:22.868Z,100
2017-04-28T16:46:44.725Z,90
2017-04-28T16:48:06.272Z,85
2017-04-28T16:49:28.715Z,80
2017-04-28T16:50:50.937Z,80
2017-04-28T16:52:13.112Z,85
2017-04-28T16:53:35.625Z,90
2017-04-28T16:54:58.120Z,95
2017-04-28T16:56:20.617Z,100
2017-04-28T16:57:43.150Z,95
2017-04-28T16:59:05.327Z,95
2017-04-28T17:00:28.017Z,90
2017-04-28T17:01:50.580Z,85
2017-04-28T17:03:12.747Z,75
2017-04-28T17:04:35.265Z,70
2017-04-28T17:05:58.090Z,70
2017-04-28T17:07:20.600Z,65
2017-04-28T17:08:42.801Z,55
2017-04-28T17:10:05.550Z,45
2017-04-28T17:11:28.037Z,40
2017-04-28T17:12:49.898Z,35
2017-04-28T17:14:12.404Z,35
2017-04-28T17:15:34.254Z,40
2017-04-28T17:16:56.522Z,45
2017-04-28T17:18:19.028Z,35
2017-04-28T17:19:40.970Z,20
2017-04-28T17:21:03.245Z,15
2017-04-28T17:22:26.039Z,10
2017-04-28T17:23:48.538Z,15
2017-04-28T17:25:10.059Z,15
2017-04-28T17:26:32.230Z,20
2017-04-28T17:27:54.779Z,25
2017-04-28T17:29:16.942Z,25
2017-04-28T17:30:39.301Z,30
2017-04-28T17:32:01.819Z,35
2017-04-28T17:33:24.606Z,40
2017-04-28T17:34:46.518Z,40
2017-04-28T17:36:09.018Z,45
2017-04-28T17:37:31.725Z,45
2017-04-28T17:38:54.022Z,45
2017-04-28T17:40:16.535Z,45
2017-04-28T17:41:38.705Z,45
2017-04-28T17:43:01.345Z,45
2017-04-28T17:44:23.490Z,45
2017-04-28T17:45:45.981Z,45
2017-04-28T17:47:08.498Z,45
2017-04-28T17:48:30.708Z,50
2017-04-28T17:49:53.119Z,55
2017-04-28T17:51:15.703Z,65
2017-04-28T17:52:37.997Z,65
2017-04-28T17:54:00.549Z,65
2017-04-28T17:55:23.155Z,70
2017-04-28T17:56:45.164Z,70
2017-04-28T17:58:07.332Z,60
2017-04-28T17:59:29.188Z,60
2017-04-28T18:00:51.359Z,55
2017-04-28T18:02:13.838Z,55
2017-04-28T18:03:36.401Z,55
2017-04-28T18:04:58.672Z,50
2017-04-28T18:06:21.076Z,50
2017-04-28T18:07:43.368Z,45
2017-04-28T18:09:05.958Z,45
2017-04-28T18:10:28.151Z,40
2017-04-28T18:11:50.280Z,35
2017-04-28T18:13:12.139Z,35
2017-04-28T18:14:34.306Z,30
2017-04-28T18:15:56.556Z,30
2017-04-28T18:17:19.228Z,25
2017-04-28T18:18:41.405Z,25
2017-04-28T18:20:03.704Z,20
2017-04-28T18:21:25.583Z,20
2017-04-28T18:22:48.422Z,20
2017-04-28T18:24:10.956Z,15
2017-04-28T18:25:33.479Z,15
2017-04-28T18:26:55.915Z,15
2017-04-28T18:28:18.405Z,20
2017-04-28T18:29:41.000Z,20
2017-04-28T18:31:03.512Z,20
2017-04-28T18:32:25.700Z,20
2017-04-28T18:33:48.183Z,20
2017-04-28T18:35:10.112Z,20
2017-04-28T18:36:32.619Z,15
2017-04-28T18:37:54.938Z,15
2017-04-28T18:39:17.519Z,15
2017-04-28T18:40:40.056Z,15
2017-04-28T18:42:02.222Z,15
2017-04-28T18:43:24.400Z,10
2017-04-28T18:44:47.198Z,5
2017-04-28T18:46:09.679Z,5
2017-04-28T18:47:32.023Z,5
2017-04-28T18:48:54.552Z,5
2017-04-28T18:50:16.358Z,5
2017-04-28T18:51:38.297Z,0
2017-04-28T18:53:00.595Z,0
2017-04-28T18:54:22.870Z,0
2017-04-28T18:55:45.458Z,0
2017-04-28T18:57:08.026Z,0
2017-04-28T18:58:30.206Z,0
2017-04-28T18:59:52.096Z,0
2017-04-28T19:01:14.569Z,0
2017-04-28T19:02:37.058Z,0
2017-04-28T19:03:59.246Z,0
2017-04-28T19:05:21.073Z,0
2017-04-28T19:06:43.321Z,0
2017-04-28T19:08:05.587Z,0
2017-04-28T19:09:28.104Z,0
2017-04-28T19:10:50.623Z,0
2017-04-28T19:12:12.829Z,0
2017-04-28T19:13:35.329Z,0
2017-04-28T19:14:57.841Z,0
2017-04-28T19:16:19.669Z,0
2017-04-28T19:17:42.447Z,0